createdAt,value
2022-11-06T00:02:09.199Z,71.54
2022-11-06T00:04:37.634Z,71.51
2022-11-06T00:07:05.815Z,71.46
2022-11-06T00:09:35.438Z,71.65
2022-11-06T00:12:05.080Z,71.75
2022-11-06T00:14:36.389Z,71.50
2022-11-06T00:17:05.331Z,71.52
2022-11-06T00:19:33.739Z,71.64
2022-11-06T00:22:03.096Z,71.82
2022-11-06T00:24:31.990Z,71.93
2022-11-06T00:27:00.412Z,71.70
2022-11-06T00:29:29.743Z,71.63
2022-11-06T00:31:59.848Z,71.46
2022-11-06T00:34:28.275Z,71.56
2022-11-06T00:36:57.402Z,71.65
2022-11-06T00:39:26.094Z,71.84
2022-11-06T00:41:55.365Z,71.96
2022-11-06T00:44:23.832Z,71.89
2022-11-06T00:46:53.035Z,71.75
2022-11-06T00:49:22.894Z,71.38
2022-11-06T00:51:52.401Z,71.67
2022-11-06T00:54:21.505Z,71.72
2022-11-06T00:56:49.920Z,71.87
2022-11-06T00:59:19.436Z,71.96
2022-11-06T01:01:48.410Z,72.15
2022-11-06T01:04:19.147Z,72.05
2022-11-06T01:06:51.430Z,72.26
2022-11-06T01:09:24.852Z,72.26
2022-11-06T01:14:45.299Z,72.49
2022-11-06T01:17:14.312Z,72.48
2022-11-06T01:19:43.442Z,72.35
2022-11-06T01:22:13.185Z,72.47
2022-11-06T01:24:43.109Z,72.68
2022-11-06T01:27:26.041Z,72.73
2022-11-06T01:29:56.193Z,72.59
2022-11-06T01:32:25.394Z,72.31
2022-11-06T01:34:54.329Z,72.43
2022-11-06T01:37:24.092Z,72.57
2022-11-06T01:39:52.948Z,72.71
2022-11-06T01:42:22.484Z,72.62
2022-11-06T01:45:18.171Z,72.77
2022-11-06T01:47:46.947Z,72.75
2022-11-06T01:50:18.129Z,72.53
2022-11-06T01:52:51.333Z,72.58
2022-11-06T01:55:25.206Z,73.02
2022-11-06T01:57:56.450Z,72.96
2022-11-06T02:00:26.466Z,72.91
2022-11-06T02:02:56.168Z,73.16
2022-11-06T02:05:24.992Z,73.27
2022-11-06T02:07:57.628Z,73.58
2022-11-06T02:10:26.120Z,73.64
2022-11-06T02:13:11.880Z,73.93
2022-11-06T02:15:47.494Z,74.03
2022-11-06T02:18:26.778Z,74.05
2022-11-06T02:21:18.431Z,74.31
2022-11-06T02:24:03.669Z,74.68
2022-11-06T02:27:02.460Z,74.94
2022-11-06T02:29:35.742Z,75.36
2022-11-06T02:32:11.544Z,75.32
2022-11-06T02:34:43.054Z,75.44
2022-11-06T02:37:17.753Z,75.40
2022-11-06T02:39:49.602Z,75.49
2022-11-06T02:42:21.400Z,75.28
2022-11-06T02:44:56.781Z,75.35
2022-11-06T02:47:30.319Z,75.25
2022-11-06T02:50:03.980Z,75.33
2022-11-06T02:52:38.292Z,75.56
2022-11-06T02:55:11.345Z,75.62
2022-11-06T02:57:43.997Z,75.53
2022-11-06T03:00:17.387Z,75.69
2022-11-06T03:02:51.477Z,75.74
2022-11-06T03:05:25.225Z,75.81
2022-11-06T03:08:00.752Z,75.81
2022-11-06T03:10:34.607Z,76.03
2022-11-06T03:13:12.856Z,76.16
2022-11-06T03:15:49.777Z,76.13
2022-11-06T03:18:27.477Z,76.08
2022-11-06T03:21:00.723Z,76.30
2022-11-06T03:23:36.008Z,76.45
2022-11-06T03:26:13.605Z,76.68
2022-11-06T03:28:50.838Z,76.70
2022-11-06T03:31:28.919Z,76.76
2022-11-06T03:34:03.100Z,76.96
2022-11-06T03:36:35.278Z,76.76
2022-11-06T03:39:10.274Z,76.62
2022-11-06T03:41:43.359Z,76.62
2022-11-06T03:44:18.898Z,76.90
2022-11-06T03:46:54.397Z,76.89
2022-11-06T03:49:28.005Z,76.98
2022-11-06T03:52:02.665Z,77.06
2022-11-06T03:54:36.678Z,77.12
2022-11-06T03:57:09.394Z,77.26
2022-11-06T03:59:44.113Z,77.16
2022-11-06T04:02:17.189Z,76.94
2022-11-06T04:04:52.588Z,76.95
2022-11-06T04:07:24.502Z,76.98
2022-11-06T04:10:15.699Z,76.93
2022-11-06T04:13:03.297Z,76.87
2022-11-06T04:15:34.381Z,77.00
2022-11-06T04:18:05.350Z,76.85
2022-11-06T04:20:59.315Z,76.86
2022-11-06T04:23:37.758Z,76.50
2022-11-06T04:26:29.203Z,76.43
2022-11-06T04:29:04.139Z,76.37
2022-11-06T04:31:41.926Z,76.38
2022-11-06T04:34:18.726Z,76.43
2022-11-06T04:36:52.375Z,76.21
2022-11-06T04:39:28.613Z,76.30
2022-11-06T04:42:06.712Z,76.13
2022-11-06T04:44:40.166Z,76.14
2022-11-06T04:47:11.238Z,76.09
2022-11-06T04:49:44.515Z,75.87
2022-11-06T04:52:17.998Z,75.97
2022-11-06T04:54:48.048Z,75.85
2022-11-06T04:57:16.676Z,75.80
2022-11-06T04:59:46.301Z,76.00
2022-11-06T05:02:14.823Z,75.88
2022-11-06T05:04:46.126Z,75.77
2022-11-06T05:07:15.140Z,75.73
2022-11-06T05:09:45.133Z,75.70
2022-11-06T05:12:14.379Z,75.75
2022-11-06T05:14:42.803Z,75.73
2022-11-06T05:17:12.052Z,75.63
2022-11-06T05:19:40.465Z,75.62
2022-11-06T05:22:29.228Z,75.36
2022-11-06T05:24:58.072Z,75.22
2022-11-06T05:27:26.588Z,75.30
2022-11-06T05:29:56.267Z,75.27
2022-11-06T05:32:24.785Z,75.30
2022-11-06T05:34:53.822Z,75.11
2022-11-06T05:37:23.584Z,75.03
2022-11-06T05:39:52.479Z,75.15
2022-11-06T05:42:21.524Z,75.04
2022-11-06T05:44:50.676Z,75.16
2022-11-06T05:47:19.336Z,74.93
2022-11-06T05:49:47.770Z,75.06
2022-11-06T05:52:16.457Z,75.08
2022-11-06T05:54:46.185Z,74.96
2022-11-06T05:57:15.227Z,74.98
2022-11-06T05:59:44.038Z,74.89
2022-11-06T06:02:12.598Z,75.05
2022-11-06T06:04:41.709Z,74.97
2022-11-06T06:07:10.115Z,74.98
2022-11-06T06:09:39.223Z,74.90
2022-11-06T06:12:11.964Z,75.07
2022-11-06T06:14:40.914Z,75.02
2022-11-06T06:17:09.278Z,74.82
2022-11-06T06:19:38.694Z,75.05
2022-11-06T06:22:07.090Z,74.97
2022-11-06T06:24:36.805Z,75.03
2022-11-06T06:27:06.307Z,75.13
2022-11-06T06:29:36.317Z,75.33
2022-11-06T06:32:05.389Z,75.29
2022-11-06T06:34:33.868Z,75.34
2022-11-06T06:37:03.294Z,75.44
2022-11-06T06:39:32.118Z,75.95
2022-11-06T06:42:00.742Z,76.12
2022-11-06T06:44:29.254Z,76.30
2022-11-06T06:46:59.042Z,76.55
2022-11-06T06:49:27.954Z,76.80
2022-11-06T06:51:56.408Z,76.67
2022-11-06T06:54:25.253Z,76.83
2022-11-06T06:56:53.893Z,76.69
2022-11-06T06:59:22.293Z,76.98
2022-11-06T07:01:50.872Z,77.01
2022-11-06T07:04:21.025Z,76.83
2022-11-06T07:06:49.542Z,77.10
2022-11-06T07:09:18.120Z,76.93
2022-11-06T07:11:46.889Z,77.11
2022-11-06T07:14:15.838Z,76.91
2022-11-06T07:16:45.648Z,76.80
2022-11-06T07:19:15.797Z,77.06
2022-11-06T07:21:46.562Z,76.97
2022-11-06T07:24:14.977Z,76.90
2022-11-06T07:26:44.305Z,76.94
2022-11-06T07:29:13.394Z,77.12
2022-11-06T07:31:41.768Z,77.22
2022-11-06T07:34:11.502Z,77.34
2022-11-06T07:36:39.915Z,77.51
2022-11-06T07:39:10.181Z,77.78
2022-11-06T07:41:39.080Z,77.82
2022-11-06T07:44:07.630Z,77.67
2022-11-06T07:46:36.130Z,77.85
2022-11-06T07:49:04.617Z,77.80
2022-11-06T07:51:33.645Z,77.50
2022-11-06T07:54:02.621Z,77.58
2022-11-06T07:56:32.654Z,77.37
2022-11-06T07:59:01.969Z,77.43
2022-11-06T08:01:30.576Z,77.31
2022-11-06T08:03:59.558Z,77.17
2022-11-06T08:06:28.046Z,77.16
2022-11-06T08:08:59.079Z,77.28
2022-11-06T08:11:27.863Z,77.23
2022-11-06T08:14:01.026Z,77.33
2022-11-06T08:16:29.595Z,77.20
2022-11-06T08:18:58.798Z,77.27
2022-11-06T08:21:27.252Z,77.07
2022-11-06T08:23:56.128Z,77.41
2022-11-06T08:26:24.536Z,77.43
2022-11-06T08:28:53.030Z,77.71
2022-11-06T08:31:23.234Z,77.60
2022-11-06T08:33:51.880Z,77.77
2022-11-06T08:36:21.765Z,77.91
2022-11-06T08:38:50.517Z,77.98
2022-11-06T08:41:19.712Z,78.40
2022-11-06T08:43:52.655Z,78.56
2022-11-06T08:46:22.890Z,78.53
2022-11-06T08:48:51.280Z,78.51
2022-11-06T08:51:19.958Z,78.55
2022-11-06T08:53:48.879Z,78.42
2022-11-06T08:56:17.753Z,78.26
2022-11-06T08:58:49.091Z,78.32
2022-11-06T09:01:20.430Z,78.05
2022-11-06T09:03:50.411Z,77.97
2022-11-06T09:06:19.432Z,77.79
2022-11-06T09:08:47.876Z,77.87
2022-11-06T09:11:16.315Z,77.66
2022-11-06T09:13:45.128Z,77.67
2022-11-06T09:16:16.071Z,77.92
2022-11-06T09:18:45.705Z,78.04
2022-11-06T09:21:15.485Z,78.11
2022-11-06T09:23:46.102Z,77.91
2022-11-06T09:26:14.982Z,78.01
2022-11-06T09:28:44.191Z,77.87
2022-11-06T09:31:12.687Z,78.22
2022-11-06T09:33:41.305Z,77.85
2022-11-06T09:36:10.593Z,78.24
2022-11-06T09:38:41.070Z,78.26
2022-11-06T09:41:19.643Z,78.07
2022-11-06T09:44:05.951Z,77.93
2022-11-06T09:46:39.340Z,78.12
2022-11-06T09:49:13.944Z,78.01
2022-11-06T09:51:49.773Z,78.10
2022-11-06T09:54:24.946Z,77.95
2022-11-06T09:56:59.097Z,77.53
2022-11-06T09:59:28.518Z,77.43
2022-11-06T10:02:01.516Z,77.56
2022-11-06T10:04:39.753Z,77.50
2022-11-06T10:07:24.561Z,77.28
2022-11-06T10:09:54.803Z,77.09
2022-11-06T10:12:35.424Z,76.91
2022-11-06T10:15:17.623Z,76.40
2022-11-06T10:17:55.258Z,76.63
2022-11-06T10:20:32.377Z,76.15
2022-11-06T10:23:06.620Z,76.02
2022-11-06T10:25:51.282Z,75.39
2022-11-06T10:28:39.968Z,75.26
2022-11-06T10:31:16.309Z,75.16
2022-11-06T10:33:56.528Z,75.04
2022-11-06T10:36:30.678Z,74.96
2022-11-06T10:39:00.909Z,74.83
2022-11-06T10:41:35.530Z,74.66
2022-11-06T10:44:07.649Z,74.53
2022-11-06T10:46:39.386Z,74.45
2022-11-06T10:49:17.096Z,74.65
2022-11-06T10:52:05.932Z,74.59
2022-11-06T10:54:46.904Z,74.23
2022-11-06T10:57:28.778Z,73.87
2022-11-06T10:59:57.863Z,73.80
2022-11-06T11:02:31.688Z,73.78
2022-11-06T11:05:00.233Z,73.62
2022-11-06T11:07:32.419Z,73.57
2022-11-06T11:10:02.505Z,73.18
2022-11-06T11:12:33.482Z,73.02
2022-11-06T11:15:17.385Z,72.71
2022-11-06T11:18:15.976Z,72.82
2022-11-06T11:20:46.745Z,72.66
2022-11-06T11:23:18.665Z,72.47
2022-11-06T11:25:49.515Z,72.37
2022-11-06T11:28:30.561Z,72.54
2022-11-06T11:31:07.643Z,72.23
2022-11-06T11:33:38.592Z,72.21
2022-11-06T11:36:10.636Z,71.78
2022-11-06T11:38:41.331Z,71.62
2022-11-06T11:41:14.131Z,71.09
2022-11-06T11:43:43.818Z,70.98
2022-11-06T11:46:21.594Z,70.95
2022-11-06T11:48:53.565Z,70.26
2022-11-06T11:51:29.197Z,69.79
2022-11-06T11:54:02.424Z,70.05
2022-11-06T11:57:02.496Z,69.36
2022-11-06T11:59:24.338Z,68.86
2022-11-06T12:01:55.336Z,68.97
2022-11-06T12:04:29.674Z,68.51
2022-11-06T12:07:04.208Z,68.24
2022-11-06T12:09:41.425Z,68.43
2022-11-06T12:12:22.651Z,67.58
2022-11-06T12:15:08.083Z,66.98
2022-11-06T12:17:41.015Z,66.55
2022-11-06T12:20:19.142Z,66.81
2022-11-06T12:22:51.340Z,66.69
2022-11-06T12:25:26.945Z,66.02
2022-11-06T12:27:58.861Z,66.04
2022-11-06T12:30:27.566Z,65.90
2022-11-06T12:33:04.266Z,65.72
2022-11-06T12:35:39.185Z,65.86
2022-11-06T12:38:16.709Z,65.81
2022-11-06T12:40:50.460Z,64.49
2022-11-06T12:43:26.909Z,63.59
2022-11-06T12:46:16.034Z,62.80
2022-11-06T12:48:58.859Z,62.76
2022-11-06T12:51:39.292Z,62.23
2022-11-06T12:54:22.789Z,62.35
2022-11-06T12:56:58.285Z,62.05
2022-11-06T12:59:41.683Z,60.86
2022-11-06T13:02:25.647Z,61.38
2022-11-06T13:05:01.297Z,61.32
2022-11-06T13:07:48.202Z,61.52
2022-11-06T13:10:30.711Z,61.23
2022-11-06T13:13:15.124Z,61.03
2022-11-06T13:15:50.954Z,59.79
2022-11-06T13:18:25.815Z,59.63
2022-11-06T13:21:02.606Z,58.50
2022-11-06T13:23:38.899Z,58.28
2022-11-06T13:26:13.556Z,58.78
2022-11-06T13:28:46.091Z,58.34
2022-11-06T13:31:20.810Z,58.10
2022-11-06T13:33:53.305Z,57.96
2022-11-06T13:36:22.872Z,57.56
2022-11-06T13:38:57.380Z,57.40
2022-11-06T13:41:29.560Z,57.80
2022-11-06T13:44:02.623Z,57.46
2022-11-06T13:46:38.495Z,57.60
2022-11-06T13:49:19.317Z,57.83
2022-11-06T13:51:53.879Z,57.58
2022-11-06T13:54:46.612Z,57.42
2022-11-06T13:57:38.048Z,57.43
2022-11-06T14:00:17.658Z,57.42
2022-11-06T14:03:19.365Z,57.77
2022-11-06T14:05:52.825Z,58.06
2022-11-06T14:08:27.281Z,58.02
2022-11-06T14:11:02.180Z,58.30
2022-11-06T14:13:33.525Z,58.48
2022-11-06T14:16:34.125Z,58.30
2022-11-06T14:19:11.606Z,58.21
2022-11-06T14:21:51.160Z,58.06
2022-11-06T14:24:32.749Z,58.06
2022-11-06T14:27:07.016Z,58.19
2022-11-06T14:30:00.399Z,58.10
2022-11-06T14:32:41.516Z,58.16
2022-11-06T14:35:49.650Z,58.23
2022-11-06T14:38:42.730Z,58.06
2022-11-06T14:41:48.567Z,58.29
2022-11-06T14:44:54.526Z,58.13
2022-11-06T14:47:28.302Z,58.44
2022-11-06T14:50:00.875Z,58.73
2022-11-06T14:52:30.013Z,58.63
2022-11-06T14:55:05.516Z,59.06
2022-11-06T14:57:44.930Z,58.84
2022-11-06T15:00:36.621Z,58.81
2022-11-06T15:03:17.016Z,59.27
2022-11-06T15:05:51.929Z,59.13
2022-11-06T15:08:57.231Z,59.17
2022-11-06T15:11:55.438Z,59.35
2022-11-06T15:15:04.794Z,59.49
2022-11-06T15:17:36.689Z,59.51
2022-11-06T15:20:21.996Z,59.50
2022-11-06T15:23:01.202Z,59.60
2022-11-06T15:25:30.730Z,60.11
2022-11-06T15:28:05.385Z,60.06
2022-11-06T15:30:42.504Z,60.40
2022-11-06T15:33:19.026Z,60.22
2022-11-06T15:35:50.047Z,60.45
2022-11-06T15:38:22.668Z,60.62
2022-11-06T15:40:54.504Z,60.80
2022-11-06T15:43:31.204Z,60.75
2022-11-06T15:46:08.645Z,60.88
2022-11-06T15:48:38.863Z,61.04
2022-11-06T15:51:22.493Z,61.43
2022-11-06T15:53:51.007Z,61.33
2022-11-06T15:56:23.371Z,61.44
2022-11-06T15:59:15.943Z,61.82
2022-11-06T16:01:49.616Z,61.62
2022-11-06T16:04:23.317Z,61.76
2022-11-06T16:06:54.033Z,62.28
2022-11-06T16:09:26.723Z,62.25
2022-11-06T16:11:55.617Z,62.47
2022-11-06T16:14:24.899Z,62.80
2022-11-06T16:16:55.729Z,62.84
2022-11-06T16:19:32.962Z,63.32
2022-11-06T16:22:06.517Z,63.27
2022-11-06T16:24:43.468Z,63.38
2022-11-06T16:27:12.808Z,63.45
2022-11-06T16:29:48.070Z,63.64
2022-11-06T16:32:19.572Z,63.80
2022-11-06T16:34:52.134Z,63.84
2022-11-06T16:37:40.551Z,63.88
2022-11-06T16:40:46.547Z,64.37
2022-11-06T16:43:17.475Z,64.50
2022-11-06T16:45:57.851Z,64.53
2022-11-06T16:48:40.657Z,64.52
2022-11-06T16:51:12.993Z,64.89
2022-11-06T16:53:53.711Z,64.64
2022-11-06T16:56:29.488Z,64.68
2022-11-06T16:59:03.061Z,64.97
2022-11-06T17:01:41.249Z,64.68
2022-11-06T17:04:20.597Z,64.95
2022-11-06T17:06:51.849Z,64.86
2022-11-06T17:09:30.264Z,65.09
2022-11-06T17:12:01.135Z,65.37
2022-11-06T17:14:30.477Z,65.43
2022-11-06T17:17:01.765Z,65.68
2022-11-06T17:19:31.362Z,65.97
2022-11-06T17:22:02.027Z,65.93
2022-11-06T17:24:36.486Z,66.10
2022-11-06T17:27:07.771Z,65.93
2022-11-06T17:29:37.399Z,65.90
2022-11-06T17:32:06.198Z,65.85
2022-11-06T17:34:35.140Z,66.21
2022-11-06T17:37:05.022Z,66.33
2022-11-06T17:39:34.748Z,66.07
2022-11-06T17:42:03.160Z,66.13
2022-11-06T17:44:32.117Z,66.57
2022-11-06T17:47:01.079Z,66.32
2022-11-06T17:49:29.521Z,66.50
2022-11-06T17:52:01.654Z,66.53
2022-11-06T17:54:33.920Z,66.60
2022-11-06T17:57:06.981Z,66.60
2022-11-06T17:59:36.144Z,66.75
2022-11-06T18:02:04.873Z,66.71
2022-11-06T18:04:34.735Z,66.78
2022-11-06T18:07:04.690Z,66.94
2022-11-06T18:09:34.791Z,66.81
2022-11-06T18:12:08.414Z,66.97
2022-11-06T18:14:36.881Z,67.07
2022-11-06T18:17:05.378Z,67.00
2022-11-06T18:19:33.970Z,67.04
2022-11-06T18:22:06.643Z,66.90
2022-11-06T18:24:39.879Z,67.10
2022-11-06T18:27:08.953Z,67.31
2022-11-06T18:29:37.350Z,67.41
2022-11-06T18:32:06.985Z,67.75
2022-11-06T18:34:35.889Z,67.49
2022-11-06T18:37:04.726Z,67.53
2022-11-06T18:39:33.587Z,67.62
2022-11-06T18:42:03.328Z,67.55
2022-11-06T18:44:33.562Z,67.87
2022-11-06T18:47:03.334Z,67.94
2022-11-06T18:49:32.299Z,67.98
2022-11-06T18:52:01.217Z,68.08
2022-11-06T18:54:30.976Z,67.73
2022-11-06T18:56:59.568Z,67.86
2022-11-06T18:59:29.809Z,67.90
2022-11-06T19:01:58.567Z,67.83
2022-11-06T19:04:28.393Z,67.93
2022-11-06T19:06:56.985Z,68.06
2022-11-06T19:09:26.082Z,68.01
2022-11-06T19:11:54.653Z,68.26
2022-11-06T19:14:23.923Z,68.38
2022-11-06T19:16:53.771Z,68.33
2022-11-06T19:19:25.600Z,68.09
2022-11-06T19:21:54.789Z,68.20
2022-11-06T19:24:23.828Z,68.27
2022-11-06T19:26:52.748Z,68.49
2022-11-06T19:29:21.172Z,68.52
2022-11-06T19:31:50.561Z,68.66
2022-11-06T19:34:25.272Z,68.53
2022-11-06T19:36:54.697Z,68.75
2022-11-06T19:39:23.835Z,68.89
2022-11-06T19:41:52.273Z,68.97
2022-11-06T19:44:21.746Z,68.93
2022-11-06T19:46:50.179Z,69.14
2022-11-06T19:49:20.417Z,69.02
2022-11-06T19:51:49.474Z,68.92
2022-11-06T19:54:17.895Z,68.92
2022-11-06T19:57:28.421Z,69.03
2022-11-06T19:59:37.975Z,69.17
2022-11-06T20:02:06.474Z,69.02
2022-11-06T20:04:36.761Z,69.36
2022-11-06T20:07:05.271Z,69.23
2022-11-06T20:09:34.666Z,69.23
2022-11-06T20:12:04.044Z,69.18
2022-11-06T20:14:32.769Z,69.15
2022-11-06T20:17:01.882Z,69.28
2022-11-06T20:19:30.275Z,69.51
2022-11-06T20:22:02.402Z,69.42
2022-11-06T20:24:30.925Z,69.41
2022-11-06T20:26:59.747Z,69.79
2022-11-06T20:29:28.213Z,69.59
2022-11-06T20:31:56.596Z,69.72
2022-11-06T20:34:25.064Z,69.74
2022-11-06T20:36:54.086Z,69.79
2022-11-06T20:39:23.953Z,69.83
2022-11-06T20:41:52.839Z,69.76
2022-11-06T20:44:22.394Z,69.79
2022-11-06T20:46:50.810Z,69.79
2022-11-06T20:49:20.249Z,69.94
2022-11-06T20:52:12.565Z,69.83
2022-11-06T20:54:43.854Z,70.14
2022-11-06T20:57:16.199Z,70.25
2022-11-06T20:59:45.539Z,70.04
2022-11-06T21:02:14.540Z,70.28
2022-11-06T21:04:43.696Z,70.24
2022-11-06T21:07:12.112Z,70.28
2022-11-06T21:09:42.457Z,70.33
2022-11-06T21:12:11.441Z,70.30
2022-11-06T21:14:40.321Z,70.48
2022-11-06T21:17:08.918Z,70.45
2022-11-06T21:19:38.735Z,70.59
2022-11-06T21:22:07.130Z,70.88
2022-11-06T21:24:35.925Z,70.83
2022-11-06T21:27:05.791Z,70.89
2022-11-06T21:29:34.740Z,70.92
2022-11-06T21:32:03.712Z,71.29
2022-11-06T21:34:32.567Z,71.24
2022-11-06T21:37:03.035Z,71.00
2022-11-06T21:39:35.776Z,71.11
2022-11-06T21:42:06.907Z,71.23
2022-11-06T21:44:35.369Z,71.18
2022-11-06T21:47:04.790Z,71.24
2022-11-06T21:49:33.176Z,71.44
2022-11-06T21:52:28.079Z,71.29
2022-11-06T21:55:15.373Z,71.53
2022-11-06T21:57:45.657Z,71.31
2022-11-06T22:00:15.865Z,71.62
2022-11-06T22:02:44.756Z,71.44
2022-11-06T22:05:13.826Z,71.43
2022-11-06T22:07:42.322Z,71.77
2022-11-06T22:10:11.850Z,71.80
2022-11-06T22:12:40.646Z,71.73
2022-11-06T22:15:11.102Z,71.73
2022-11-06T22:17:40.419Z,72.00
2022-11-06T22:20:09.823Z,72.02
2022-11-06T22:22:39.247Z,71.95
2022-11-06T22:25:08.183Z,71.96
2022-11-06T22:27:40.911Z,71.82
2022-11-06T22:30:12.932Z,72.12
2022-11-06T22:32:41.817Z,71.97
2022-11-06T22:35:11.179Z,71.98
2022-11-06T22:37:39.566Z,72.02
2022-11-06T22:40:10.547Z,72.03
2022-11-06T22:42:39.028Z,72.13
2022-11-06T22:45:09.281Z,71.91
2022-11-06T22:47:39.246Z,71.94
2022-11-06T22:50:09.320Z,71.95
2022-11-06T22:52:38.208Z,72.04
2022-11-06T22:55:07.448Z,72.11
2022-11-06T22:57:36.752Z,72.11
2022-11-06T23:00:06.875Z,72.30
2022-11-06T23:02:35.512Z,72.21
2022-11-06T23:05:06.133Z,72.04
2022-11-06T23:07:35.154Z,72.45
2022-11-06T23:10:03.591Z,72.29
2022-11-06T23:12:32.785Z,72.59
2022-11-06T23:15:02.500Z,72.50
2022-11-06T23:17:31.127Z,72.62
2022-11-06T23:20:17.933Z,72.80
2022-11-06T23:22:49.978Z,72.68
2022-11-06T23:25:19.588Z,72.56
2022-11-06T23:27:50.105Z,72.78
2022-11-06T23:30:18.615Z,73.13
2022-11-06T23:32:48.267Z,73.28
2022-11-06T23:35:17.211Z,73.35
2022-11-06T23:37:47.613Z,73.23
2022-11-06T23:40:17.176Z,73.31
2022-11-06T23:42:49.233Z,73.36
2022-11-06T23:45:36.255Z,73.50
2022-11-06T23:48:08.608Z,73.58
2022-11-06T23:50:37.746Z,73.59
2022-11-06T23:53:07.438Z,73.49
2022-11-06T23:55:36.284Z,73.62
2022-11-06T23:58:04.720Z,73.85
